• Join FlightAware (Why Join?)
  • Login
  • US Flag 
06:39AM EDT


 

Airport Tracker/Info


-or-


 

Live Flight TrackerFlight Track Log ✈ EGF4393 ✈ 27-Apr-2013 ✈ KORD - KCWA

Flight Track Log - Related Links

Times and Time Zones

All times are in EDT time to prevent confusion due to time zone crossing. See the EGF4393 flight status page for this flight to view local times or setup timezone preferences in your user account.

Time Position Orientation Groundspeed Altitude Reporting Facility
EDT Latitude Longitude Course Direction KTS MPH feet Rate Location/Type
03:40PM 41.9333 -87.8833 346° North 179 206 2,200  Level Chicago TRACON
03:41PM 41.9333 -87.8167 90° East 213 245 4,900 2,400 Climbing Chicago TRACON
03:42PM 42.1554 -87.9597 350° North  Level FlightAware Approximate
03:42PM 42.0000 -87.8000 11° North 271 312 6,900  Level Chicago TRACON
03:43PM 42.2497 -87.9916 350° North  Level FlightAware Approximate
03:44PM 42.3457 -88.0156 350° North  Level FlightAware Approximate
03:44PM 42.1678 -87.8089 358° North 298 343 13,100  Level Chicago Center
03:45PM 42.4385 -88.0544 352° North  Level FlightAware Approximate
03:45PM 42.2522 -87.8150 357° North 305 351 15,500  Level Chicago Center
03:46PM 42.5206 -88.0846 346° North  Level FlightAware Approximate
03:47PM 42.3519 -87.8194 358° North 321 369 18,000  Level Chicago Center
03:48PM 42.4428 -87.8297 355° North 326 375 20,300 1,740 Climbing Chicago Center
03:49PM 42.5400 -87.8417 355° North 344 396 21,600 780 Climbing Chicago Center
03:50PM 42.6556 -87.9178 334° Northwest 399 459 22,000 180 Climbing Chicago Center
03:51PM 42.7581 -88.0008 329° Northwest 422 486 22,000  Level Chicago Center
03:52PM 42.8625 -88.0836 330° Northwest 431 496 22,000  Level Chicago Center
03:53PM 42.9658 -88.1669 329° Northwest 431 496 22,000  Level Chicago Center
03:54PM 43.0703 -88.2500 330° Northwest 433 498 22,000  Level Chicago Center
03:55PM 43.1750 -88.3333 330° Northwest 434 499 22,000  Level Chicago Center
03:56PM 43.2786 -88.4181 329° Northwest 433 498 22,000  Level Chicago Center
03:57PM 43.3833 -88.5031 329° Northwest 431 496 22,000  Level Chicago Center
03:58PM 43.4933 -88.5928 329° Northwest 434 499 22,000  Level Chicago Center
03:59PM 43.5978 -88.6781 329° Northwest 434 499 22,000  Level Chicago Center
04:00PM 43.6842 -88.7483 330° Northwest 432 497 22,000 -240 Level Minneapolis Center
04:01PM 43.7867 -88.8339 329° Northwest 431 496 21,600 -1,260 Descending Minneapolis Center
04:02PM 43.8867 -88.9169 329° Northwest 420 483 19,500 -2,100 Descending Minneapolis Center
04:03PM 43.9836 -88.9967 329° Northwest 408 470 17,400 -2,280 Descending Minneapolis Center
04:04PM 44.0867 -89.0825 329° Northwest 389 448 14,900 -1,920 Descending Minneapolis Center
04:05PM 44.1750 -89.1564 329° Northwest 386 444 13,500 -1,560 Descending Minneapolis Center
04:06PM 44.2681 -89.2339 329° Northwest 375 432 11,800 -1,560 Descending Minneapolis Center
04:07PM 44.3511 -89.3036 329° Northwest 337 388 10,400 -1,500 Descending Minneapolis Center
04:08PM 44.4169 -89.3600 329° Northwest 275 316 8,800 -1,620 Descending Minneapolis Center
04:09PM 44.4828 -89.4169 328° Northwest 267 307 7,200 -1,380 Descending Minneapolis Center
04:10PM 44.5433 -89.4675 329° Northwest 264 304 6,000 -1,140 Descending Minneapolis Center
04:11PM 44.6100 -89.5228 329° Northwest 267 307 4,900 -1,080 Descending Minneapolis Center